Time;durP1;ratioP1;P1;durP2;ratioP2;P2;SDS_P1;SDS_P2;PMS_P1;PMS_P2;Temp;Humidity;BMP_temperature;BMP_pressure;BME280_temperature;BME280_humidity;BME280_pressure;Samples;Min_cycle;Max_cycle;Signal;HPM_P1;HPM_P2
2023/07/31 00:00:11;;;;;;;4.05;2.38;;;;;;;;;;5096824;28;20035;-60
2023/07/31 00:02:36;;;;;;;4.72;2.50;;;;;;;;;;5106517;28;20035;-60
2023/07/31 00:05:02;;;;;;;6.57;2.50;;;;;;;;;;5091581;28;20032;-60
2023/07/31 00:07:27;;;;;;;4.28;2.60;;;;;;;;;;5109982;28;20388;-60
2023/07/31 00:09:53;;;;;;;5.10;2.83;;;;;;;;;;5110386;28;20036;-62
2023/07/31 00:12:19;;;;;;;5.18;3.00;;;;;;;;;;5105736;28;20176;-61
2023/07/31 00:14:45;;;;;;;6.85;3.83;;;;;;;;;;5098926;28;20043;-59
2023/07/31 00:17:11;;;;;;;6.45;3.70;;;;;;;;;;5103515;28;20031;-60
2023/07/31 00:19:38;;;;;;;6.30;3.90;;;;;;;;;;5106018;28;20154;-61
2023/07/31 00:22:04;;;;;;;6.43;4.03;;;;;;;;;;5090997;28;20106;-62
2023/07/31 00:24:30;;;;;;;6.38;3.60;;;;;;;;;;5094612;28;20190;-59
2023/07/31 00:26:55;;;;;;;7.15;3.90;;;;;;;;;;5104824;28;20441;-62
2023/07/31 00:29:20;;;;;;;5.13;3.00;;;;;;;;;;5091929;28;20036;-60
2023/07/31 00:31:46;;;;;;;6.15;3.20;;;;;;;;;;5095753;28;20153;-61
2023/07/31 00:34:11;;;;;;;6.78;3.25;;;;;;;;;;5109612;28;20082;-61
2023/07/31 00:36:36;;;;;;;5.97;3.70;;;;;;;;;;5091626;28;20134;-61
2023/07/31 00:39:02;;;;;;;7.20;4.07;;;;;;;;;;5091132;28;20039;-61
2023/07/31 00:41:27;;;;;;;8.27;4.72;;;;;;;;;;5108308;28;20079;-60
2023/07/31 00:43:52;;;;;;;6.80;4.18;;;;;;;;;;5100603;28;20369;-61
2023/07/31 00:46:18;;;;;;;8.90;5.45;;;;;;;;;;5091576;28;20168;-60
2023/07/31 00:48:44;;;;;;;11.48;6.25;;;;;;;;;;5095224;28;20035;-60
2023/07/31 00:51:10;;;;;;;12.57;6.78;;;;;;;;;;5100849;28;20491;-60
2023/07/31 00:53:36;;;;;;;14.00;6.60;;;;;;;;;;5105541;28;20047;-60
2023/07/31 00:56:01;;;;;;;11.98;6.57;;;;;;;;;;5092254;28;20032;-60
2023/07/31 00:58:27;;;;;;;11.57;5.35;;;;;;;;;;5091647;28;20138;-60
2023/07/31 01:00:52;;;;;;;14.75;7.30;;;;;;;;;;5091942;28;20047;-60
2023/07/31 01:03:18;;;;;;;17.52;8.02;;;;;;;;;;5091572;28;20085;-60
2023/07/31 01:06:13;;;;;;;13.65;6.57;;;;;;;;;;5094474;28;20477;-60
2023/07/31 01:08:56;;;;;;;18.83;8.15;;;;;;;;;;5097050;28;20031;-60
2023/07/31 01:11:27;;;;;;;20.33;8.15;;;;;;;;;;5093191;28;20068;-60
2023/07/31 01:13:53;;;;;;;;;;;;;;;;;;5091144;28;20483;-61
2023/07/31 01:16:19;;;;;;;18.27;6.32;;;;;;;;;;5108748;28;19915;-60
2023/07/31 01:18:44;;;;;;;16.02;6.85;;;;;;;;;;5111528;28;20253;-61
2023/07/31 01:21:34;;;;;;;20.23;6.97;;;;;;;;;;5109725;28;20634;-60
2023/07/31 01:24:35;;;;;;;21.47;7.73;;;;;;;;;;5107940;28;20035;-60
2023/07/31 01:27:12;;;;;;;12.65;5.47;;;;;;;;;;5092944;28;20043;-60
2023/07/31 01:29:49;;;;;;;19.55;6.85;;;;;;;;;;5105906;28;20048;-60
2023/07/31 01:32:16;;;;;;;16.20;5.95;;;;;;;;;;5104871;28;20405;-60
2023/07/31 01:34:42;;;;;;;22.45;7.40;;;;;;;;;;5109157;28;20484;-60
2023/07/31 01:37:08;;;;;;;17.15;6.78;;;;;;;;;;5099944;28;20072;-60
2023/07/31 01:39:33;;;;;;;20.05;6.82;;;;;;;;;;5092942;28;20032;-60
2023/07/31 01:41:59;;;;;;;23.70;7.03;;;;;;;;;;5098392;28;20023;-60
2023/07/31 01:44:24;;;;;;;16.80;6.80;;;;;;;;;;5096246;28;20461;-59
2023/07/31 01:46:49;;;;;;;19.80;6.45;;;;;;;;;;5091228;28;20032;-60
2023/07/31 01:49:15;;;;;;;15.55;5.65;;;;;;;;;;5090439;28;20036;-60
2023/07/31 01:51:40;;;;;;;15.10;4.70;;;;;;;;;;5091714;28;20032;-60
2023/07/31 01:54:06;;;;;;;14.77;5.82;;;;;;;;;;5096467;28;20024;-60
2023/07/31 01:56:31;;;;;;;11.82;5.15;;;;;;;;;;5093684;28;20458;-60
2023/07/31 01:58:57;;;;;;;16.08;5.72;;;;;;;;;;5099411;28;20024;-61
2023/07/31 02:01:22;;;;;;;16.38;5.93;;;;;;;;;;5095070;28;20040;-60
2023/07/31 02:03:47;;;;;;;20.02;5.18;;;;;;;;;;5100844;28;20124;-61
2023/07/31 02:06:13;;;;;;;11.88;5.20;;;;;;;;;;5096064;28;20048;-60
2023/07/31 02:08:38;;;;;;;19.10;5.93;;;;;;;;;;5108155;28;20038;-60
2023/07/31 02:11:04;;;;;;;16.95;5.30;;;;;;;;;;5095586;28;20027;-60
2023/07/31 02:13:29;;;;;;;14.15;5.40;;;;;;;;;;5095367;28;20499;-60
2023/07/31 02:15:54;;;;;;;21.27;5.47;;;;;;;;;;5095392;28;20028;-60
2023/07/31 02:18:20;;;;;;;15.40;5.18;;;;;;;;;;5094558;28;20043;-60
2023/07/31 02:20:52;;;;;;;14.98;5.82;;;;;;;;;;5095395;28;20445;-60
2023/07/31 02:23:18;;;;;;;16.98;5.60;;;;;;;;;;5093728;28;20035;-60
2023/07/31 02:25:44;;;;;;;13.23;5.13;;;;;;;;;;5095444;28;20429;-60
2023/07/31 02:28:10;;;;;;;16.13;5.50;;;;;;;;;;5093926;28;20086;-60
2023/07/31 02:30:35;;;;;;;14.20;5.10;;;;;;;;;;5105847;28;20437;-60
2023/07/31 02:33:01;;;;;;;16.88;4.95;;;;;;;;;;5099992;28;20035;-60
2023/07/31 02:35:26;;;;;;;11.80;4.43;;;;;;;;;;5094472;28;20078;-60
2023/07/31 02:37:51;;;;;;;13.02;3.95;;;;;;;;;;5103463;28;20447;-60
2023/07/31 02:40:17;;;;;;;17.45;5.18;;;;;;;;;;5112050;28;20096;-61
2023/07/31 02:42:42;;;;;;;14.68;4.38;;;;;;;;;;5105061;28;20526;-60
2023/07/31 02:45:08;;;;;;;14.80;4.13;;;;;;;;;;5104697;28;20036;-61
2023/07/31 02:47:34;;;;;;;13.10;4.72;;;;;;;;;;5095789;28;20102;-61
2023/07/31 02:49:59;;;;;;;15.27;4.82;;;;;;;;;;5102852;28;20031;-61
2023/07/31 02:52:28;;;;;;;13.93;4.68;;;;;;;;;;5094610;28;20421;-60
2023/07/31 02:54:53;;;;;;;10.95;4.20;;;;;;;;;;5098982;28;20032;-61
2023/07/31 02:57:19;;;;;;;13.00;3.88;;;;;;;;;;5093392;28;20066;-60
2023/07/31 02:59:44;;;;;;;11.55;4.20;;;;;;;;;;5095383;28;20455;-61
2023/07/31 03:02:10;;;;;;;10.63;3.83;;;;;;;;;;5096401;28;20032;-61
2023/07/31 03:04:36;;;;;;;13.80;4.28;;;;;;;;;;5095672;28;20040;-60
2023/07/31 03:07:01;;;;;;;10.93;4.30;;;;;;;;;;5095334;28;20101;-61
2023/07/31 03:09:26;;;;;;;10.88;4.10;;;;;;;;;;5093962;28;20032;-61
2023/07/31 03:11:52;;;;;;;10.20;4.18;;;;;;;;;;5094412;28;20031;-61
2023/07/31 03:14:17;;;;;;;13.18;4.47;;;;;;;;;;5094064;28;20114;-61
2023/07/31 03:16:42;;;;;;;15.60;4.25;;;;;;;;;;5093178;28;20020;-61
2023/07/31 03:19:11;;;;;;;16.55;4.50;;;;;;;;;;5092591;28;20471;-61
2023/07/31 03:21:36;;;;;;;16.08;4.78;;;;;;;;;;5096726;28;20037;-60
2023/07/31 03:24:01;;;;;;;13.55;3.67;;;;;;;;;;5110961;27;20040;-60
2023/07/31 03:26:27;;;;;;;16.20;4.40;;;;;;;;;;5109805;28;20061;-60
2023/07/31 03:28:52;;;;;;;11.07;3.72;;;;;;;;;;5094574;28;20425;-61
2023/07/31 03:31:17;;;;;;;13.93;4.10;;;;;;;;;;5092214;28;20053;-60
2023/07/31 03:33:43;;;;;;;10.45;3.90;;;;;;;;;;5096191;28;20353;-61
2023/07/31 03:36:08;;;;;;;13.40;4.13;;;;;;;;;;5092474;28;20032;-60
2023/07/31 03:38:34;;;;;;;14.57;4.25;;;;;;;;;;5095648;28;20125;-60
2023/07/31 03:41:03;;;;;;;17.85;4.45;;;;;;;;;;5105835;28;20685;-61
2023/07/31 03:43:29;;;;;;;12.23;3.83;;;;;;;;;;5102413;28;20032;-61
2023/07/31 03:45:54;;;;;;;16.33;3.67;;;;;;;;;;5093781;28;20392;-60
2023/07/31 03:48:19;;;;;;;17.05;4.63;;;;;;;;;;5110920;28;20028;-60
2023/07/31 03:50:45;;;;;;;14.90;4.90;;;;;;;;;;5093418;28;20143;-61
2023/07/31 03:53:10;;;;;;;14.68;4.38;;;;;;;;;;5094404;28;20043;-61
2023/07/31 03:55:36;;;;;;;13.60;4.90;;;;;;;;;;5100503;28;20537;-60
2023/07/31 03:58:01;;;;;;;11.05;3.72;;;;;;;;;;5108231;28;20099;-62
2023/07/31 04:00:27;;;;;;;15.93;4.60;;;;;;;;;;5096850;28;20384;-60
2023/07/31 04:02:52;;;;;;;11.75;4.13;;;;;;;;;;5094660;28;20111;-59
2023/07/31 04:05:18;;;;;;;13.38;4.45;;;;;;;;;;5096598;28;20461;-60
2023/07/31 04:07:43;;;;;;;9.55;3.90;;;;;;;;;;5113931;28;20517;-60
2023/07/31 04:10:09;;;;;;;15.63;5.13;;;;;;;;;;5111297;28;20028;-60
2023/07/31 04:12:34;;;;;;;11.32;4.18;;;;;;;;;;5111215;28;20027;-60
2023/07/31 04:15:00;;;;;;;16.75;5.00;;;;;;;;;;5091665;28;20046;-60
2023/07/31 04:17:25;;;;;;;14.32;4.97;;;;;;;;;;5101365;28;20039;-60
2023/07/31 04:19:51;;;;;;;11.55;4.38;;;;;;;;;;5111129;28;20461;-59
2023/07/31 04:22:18;;;;;;;13.45;4.72;;;;;;;;;;5104193;28;20024;-60
2023/07/31 04:24:44;;;;;;;10.30;4.60;;;;;;;;;;5112095;28;20035;-59
2023/07/31 04:27:10;;;;;;;13.48;4.95;;;;;;;;;;5111887;28;20035;-60
2023/07/31 04:29:35;;;;;;;16.13;4.85;;;;;;;;;;5112253;28;20153;-59
2023/07/31 04:32:00;;;;;;;15.23;4.22;;;;;;;;;;5113307;28;20043;-60
2023/07/31 04:34:26;;;;;;;10.57;4.03;;;;;;;;;;5112792;28;20027;-59
2023/07/31 04:36:51;;;;;;;14.60;4.63;;;;;;;;;;5112868;28;20035;-60
2023/07/31 04:39:17;;;;;;;12.82;4.65;;;;;;;;;;5093841;28;20223;-60
2023/07/31 04:41:42;;;;;;;13.93;4.25;;;;;;;;;;5092717;28;20106;-59
2023/07/31 04:44:07;;;;;;;12.77;4.15;;;;;;;;;;5101161;28;20076;-60
2023/07/31 04:46:33;;;;;;;13.25;3.95;;;;;;;;;;5112041;28;20468;-60
2023/07/31 04:48:58;;;;;;;12.27;4.35;;;;;;;;;;5112820;28;20030;-60
2023/07/31 04:51:25;;;;;;;14.25;5.03;;;;;;;;;;5111845;28;20028;-60
2023/07/31 04:53:50;;;;;;;10.57;4.03;;;;;;;;;;5112845;28;20027;-60
2023/07/31 04:56:16;;;;;;;9.80;4.30;;;;;;;;;;5111809;28;20456;-60
2023/07/31 04:58:43;;;;;;;8.50;4.03;;;;;;;;;;5112527;28;20174;-60
2023/07/31 05:01:09;;;;;;;12.00;4.18;;;;;;;;;;5112002;28;20031;-60
2023/07/31 05:03:34;;;;;;;14.82;4.68;;;;;;;;;;5112049;28;20529;-59
2023/07/31 05:06:00;;;;;;;14.65;5.05;;;;;;;;;;5111059;28;20034;-59
2023/07/31 05:08:25;;;;;;;12.90;5.10;;;;;;;;;;5111721;28;20064;-60
2023/07/31 05:10:51;;;;;;;11.55;4.93;;;;;;;;;;5112900;28;20070;-60
2023/07/31 05:13:17;;;;;;;14.95;5.47;;;;;;;;;;5111468;28;20051;-60
2023/07/31 05:15:42;;;;;;;13.70;5.28;;;;;;;;;;5112334;28;20461;-60
2023/07/31 05:18:07;;;;;;;13.32;5.07;;;;;;;;;;5107102;28;20027;-62
2023/07/31 05:20:33;;;;;;;13.02;4.90;;;;;;;;;;5110849;28;20039;-61
2023/07/31 05:22:58;;;;;;;14.15;4.90;;;;;;;;;;5101314;28;20027;-61
2023/07/31 05:25:24;;;;;;;16.17;5.53;;;;;;;;;;5108503;28;20070;-63
2023/07/31 05:27:49;;;;;;;11.73;4.75;;;;;;;;;;5103237;28;20028;-62
2023/07/31 05:30:14;;;;;;;12.68;4.88;;;;;;;;;;5111218;28;20127;-65
2023/07/31 05:32:40;;;;;;;11.85;4.68;;;;;;;;;;5107573;28;20157;-62
2023/07/31 05:35:05;;;;;;;15.57;5.53;;;;;;;;;;5111589;28;20039;-65
2023/07/31 05:37:31;;;;;;;15.50;5.07;;;;;;;;;;5107072;28;20031;-64
2023/07/31 05:39:56;;;;;;;13.50;5.05;;;;;;;;;;5111767;28;20023;-63
2023/07/31 05:42:22;;;;;;;10.25;4.57;;;;;;;;;;5107252;28;20028;-63
2023/07/31 05:44:47;;;;;;;12.63;4.88;;;;;;;;;;5094021;28;20431;-64
2023/07/31 05:47:13;;;;;;;13.65;4.90;;;;;;;;;;5108809;28;20464;-62
2023/07/31 05:49:38;;;;;;;10.70;4.70;;;;;;;;;;5091990;28;20032;-64
2023/07/31 05:52:04;;;;;;;14.55;5.57;;;;;;;;;;5090517;28;20032;-62
2023/07/31 05:54:29;;;;;;;13.27;5.40;;;;;;;;;;5094982;28;20024;-62
2023/07/31 05:56:55;;;;;;;12.90;6.55;;;;;;;;;;5111661;28;20027;-62
2023/07/31 05:59:20;;;;;;;15.75;6.60;;;;;;;;;;5091816;28;20031;-61
2023/07/31 06:01:45;;;;;;;16.58;6.82;;;;;;;;;;5091867;28;20461;-62
2023/07/31 06:04:11;;;;;;;16.58;6.88;;;;;;;;;;5108221;28;20035;-64
2023/07/31 06:06:39;;;;;;;16.85;6.93;;;;;;;;;;5111548;28;20376;-61
2023/07/31 06:09:05;;;;;;;19.33;7.43;;;;;;;;;;5110909;28;20035;-61
2023/07/31 06:11:30;;;;;;;15.43;7.57;;;;;;;;;;5110214;28;20123;-62
2023/07/31 06:13:56;;;;;;;16.02;8.18;;;;;;;;;;5105316;28;20036;-63
2023/07/31 06:16:21;;;;;;;15.07;8.48;;;;;;;;;;5110450;28;20031;-63
2023/07/31 06:18:47;;;;;;;15.73;8.48;;;;;;;;;;5098060;28;20483;-62
2023/07/31 06:21:12;;;;;;;18.60;8.57;;;;;;;;;;5106198;28;20036;-62
2023/07/31 06:23:41;;;;;;;23.88;8.73;;;;;;;;;;5099693;28;20031;-61
2023/07/31 06:26:06;;;;;;;25.60;8.57;;;;;;;;;;5091265;28;20399;-62
2023/07/31 06:28:32;;;;;;;19.50;8.05;;;;;;;;;;5104509;28;20035;-64
2023/07/31 06:30:58;;;;;;;20.30;8.73;;;;;;;;;;5107848;28;20465;-64
2023/07/31 06:33:23;;;;;;;18.73;7.70;;;;;;;;;;5110335;28;20043;-66
2023/07/31 06:35:49;;;;;;;20.27;8.13;;;;;;;;;;5111580;28;20063;-65
2023/07/31 06:38:14;;;;;;;19.85;7.93;;;;;;;;;;5110083;28;20027;-63
2023/07/31 06:40:40;;;;;;;23.25;8.85;;;;;;;;;;5111595;28;20077;-63
2023/07/31 06:43:08;;;;;;;19.60;8.32;;;;;;;;;;5109332;28;20515;-61
2023/07/31 06:45:35;;;;;;;18.63;8.07;;;;;;;;;;5112013;28;20104;-70
2023/07/31 06:48:01;;;;;;;17.58;8.50;;;;;;;;;;5113549;28;20029;-60
2023/07/31 06:50:28;;;;;;;19.00;7.85;;;;;;;;;;5112223;27;20036;-63
2023/07/31 06:52:54;;;;;;;20.35;8.07;;;;;;;;;;5111016;28;20464;-63
2023/07/31 06:55:21;;;;;;;20.30;8.07;;;;;;;;;;5092422;28;20028;-65
2023/07/31 06:57:51;;;;;;;21.02;8.23;;;;;;;;;;5105232;28;20028;-63
2023/07/31 07:00:17;;;;;;;19.23;8.23;;;;;;;;;;5093627;28;20089;-64
2023/07/31 07:02:42;;;;;;;17.77;7.75;;;;;;;;;;5113196;28;20042;-63
2023/07/31 07:05:08;;;;;;;17.85;7.47;;;;;;;;;;5106789;28;20048;-61
2023/07/31 07:07:35;;;;;;;20.83;7.70;;;;;;;;;;5109589;28;20173;-61
2023/07/31 07:10:00;;;;;;;18.23;8.20;;;;;;;;;;5115042;27;20031;-60
2023/07/31 07:12:29;;;;;;;17.25;7.65;;;;;;;;;;5099200;28;20035;-62
2023/07/31 07:14:54;;;;;;;14.85;6.85;;;;;;;;;;5095269;28;20028;-63
2023/07/31 07:17:20;;;;;;;14.68;5.90;;;;;;;;;;5112185;28;20046;-63
2023/07/31 07:19:47;;;;;;;13.38;6.75;;;;;;;;;;5105139;28;20031;-63
2023/07/31 07:22:13;;;;;;;12.35;5.72;;;;;;;;;;5109100;28;20120;-64
2023/07/31 07:24:38;;;;;;;11.00;5.68;;;;;;;;;;5102647;28;20040;-62
2023/07/31 07:27:03;;;;;;;11.98;5.43;;;;;;;;;;5110338;28;20387;-62
2023/07/31 07:29:29;;;;;;;13.90;5.60;;;;;;;;;;5109950;28;20044;-63
2023/07/31 07:31:54;;;;;;;11.40;5.82;;;;;;;;;;5114141;28;20032;-63
2023/07/31 07:34:22;;;;;;;11.30;6.20;;;;;;;;;;5102342;28;20031;-63
2023/07/31 07:36:48;;;;;;;12.45;6.50;;;;;;;;;;5113895;27;20122;-65
2023/07/31 07:39:14;;;;;;;9.93;5.35;;;;;;;;;;5112184;28;20086;-65
2023/07/31 07:41:39;;;;;;;15.57;6.15;;;;;;;;;;5114150;28;20024;-65
2023/07/31 07:44:05;;;;;;;11.05;5.82;;;;;;;;;;5112003;28;20115;-63
2023/07/31 07:46:30;;;;;;;12.90;5.85;;;;;;;;;;5113927;28;20056;-64
2023/07/31 07:48:55;;;;;;;9.30;5.68;;;;;;;;;;5115557;27;20054;-61
2023/07/31 07:51:21;;;;;;;10.98;5.95;;;;;;;;;;5112742;28;20036;-62
2023/07/31 07:53:47;;;;;;;14.13;6.80;;;;;;;;;;5109813;28;20090;-61
2023/07/31 07:56:12;;;;;;;11.45;5.63;;;;;;;;;;5113742;28;20019;-61
2023/07/31 07:58:37;;;;;;;8.60;4.75;;;;;;;;;;5113464;28;20130;-64
2023/07/31 08:01:03;;;;;;;10.88;4.95;;;;;;;;;;5104461;28;20024;-60
2023/07/31 08:03:31;;;;;;;11.90;5.68;;;;;;;;;;5114182;28;20027;-61
2023/07/31 08:06:01;;;;;;;8.55;4.70;;;;;;;;;;5111453;28;20076;-61
2023/07/31 08:08:28;;;;;;;10.93;4.53;;;;;;;;;;5109056;28;20047;-61
2023/07/31 08:10:53;;;;;;;12.43;5.03;;;;;;;;;;5105666;28;20034;-62
2023/07/31 08:13:19;;;;;;;7.72;4.05;;;;;;;;;;5112469;28;20036;-63
2023/07/31 08:15:45;;;;;;;10.85;5.03;;;;;;;;;;5097869;28;20028;-63
2023/07/31 08:18:11;;;;;;;9.52;4.68;;;;;;;;;;5099385;28;20100;-63
2023/07/31 08:20:37;;;;;;;7.22;3.60;;;;;;;;;;5114541;28;20027;-62
2023/07/31 08:23:03;;;;;;;11.25;5.10;;;;;;;;;;5103902;28;20034;-63
2023/07/31 08:25:28;;;;;;;11.88;5.25;;;;;;;;;;5105918;28;20031;-63
2023/07/31 08:27:54;;;;;;;7.75;4.55;;;;;;;;;;5114585;28;20039;-63
2023/07/31 08:30:19;;;;;;;10.63;4.75;;;;;;;;;;5115793;28;20107;-64
2023/07/31 08:32:45;;;;;;;8.70;4.25;;;;;;;;;;5114720;28;20081;-62
2023/07/31 08:35:10;;;;;;;8.45;4.30;;;;;;;;;;5113025;28;20031;-64
2023/07/31 08:37:37;;;;;;;7.70;3.85;;;;;;;;;;5113585;28;20020;-63
2023/07/31 08:40:03;;;;;;;6.60;3.58;;;;;;;;;;5112793;28;20031;-64
2023/07/31 08:42:29;;;;;;;6.03;3.30;;;;;;;;;;5113261;28;20035;-63
2023/07/31 08:44:56;;;;;;;6.85;3.15;;;;;;;;;;5108416;28;20057;-63
2023/07/31 08:47:22;;;;;;;7.43;3.50;;;;;;;;;;5111425;27;20035;-61
2023/07/31 08:49:49;;;;;;;7.07;3.53;;;;;;;;;;5107855;28;20032;-63
2023/07/31 08:52:14;;;;;;;8.02;3.88;;;;;;;;;;5117055;28;20095;-63
2023/07/31 08:54:41;;;;;;;9.55;4.25;;;;;;;;;;5115796;28;20119;-63
2023/07/31 08:57:08;;;;;;;7.10;3.30;;;;;;;;;;5117757;28;20416;-63
2023/07/31 08:59:35;;;;;;;7.38;3.90;;;;;;;;;;5111793;28;20946;-63
2023/07/31 09:02:10;;;;;;;8.25;3.95;;;;;;;;;;5114324;28;20084;-63
2023/07/31 09:04:36;;;;;;;7.40;3.78;;;;;;;;;;5100235;28;20087;-63
2023/07/31 09:07:04;;;;;;;6.68;3.83;;;;;;;;;;5104882;28;20426;-64
2023/07/31 09:09:32;;;;;;;8.93;3.70;;;;;;;;;;5107326;28;20032;-65
2023/07/31 09:11:58;;;;;;;7.05;3.67;;;;;;;;;;5100046;28;20114;-62
2023/07/31 09:14:25;;;;;;;5.85;3.38;;;;;;;;;;5099749;28;20089;-63
2023/07/31 09:16:56;;;;;;;9.55;3.90;;;;;;;;;;5095088;28;20447;-64
2023/07/31 09:19:33;;;;;;;8.98;3.97;;;;;;;;;;5106004;28;20380;-63
2023/07/31 09:22:00;;;;;;;7.07;4.07;;;;;;;;;;5117954;28;20031;-61
2023/07/31 09:24:28;;;;;;;6.00;3.65;;;;;;;;;;5105642;28;20024;-63
2023/07/31 09:26:58;;;;;;;7.68;3.70;;;;;;;;;;5104476;28;20433;-64
2023/07/31 09:29:24;;;;;;;6.50;3.55;;;;;;;;;;5111453;28;20048;-64
2023/07/31 09:31:53;;;;;;;7.68;4.00;;;;;;;;;;5112762;28;20095;-64
2023/07/31 09:34:19;;;;;;;6.28;3.00;;;;;;;;;;5112479;28;20027;-65
2023/07/31 09:36:47;;;;;;;6.65;2.85;;;;;;;;;;5111467;28;20050;-64
2023/07/31 09:39:19;;;;;;;6.65;3.40;;;;;;;;;;5111093;28;20031;-62
2023/07/31 09:41:48;;;;;;;7.57;3.60;;;;;;;;;;5113060;28;20028;-63
2023/07/31 09:44:13;;;;;;;8.23;3.30;;;;;;;;;;5113496;28;20027;-62
2023/07/31 09:46:39;;;;;;;4.18;2.55;;;;;;;;;;5112841;28;20032;-63
2023/07/31 09:49:07;;;;;;;4.38;2.75;;;;;;;;;;5113003;28;20424;-63
2023/07/31 09:51:37;;;;;;;5.47;2.75;;;;;;;;;;5109061;28;20498;-62
2023/07/31 09:54:03;;;;;;;;;;;;;;;;;;5109095;28;20119;-62
2023/07/31 09:56:29;;;;;;;5.38;3.00;;;;;;;;;;5097878;28;19983;-62
2023/07/31 09:58:56;;;;;;;4.82;3.20;;;;;;;;;;5110624;28;20031;-63
2023/07/31 10:01:21;;;;;;;4.95;2.90;;;;;;;;;;5100236;28;20156;-63
2023/07/31 10:03:47;;;;;;;6.53;2.92;;;;;;;;;;5110665;28;20106;-62
2023/07/31 10:06:15;;;;;;;6.50;2.95;;;;;;;;;;5112304;28;20098;-61
2023/07/31 10:08:42;;;;;;;5.55;3.10;;;;;;;;;;5109607;28;20162;-62
2023/07/31 10:11:09;;;;;;;4.40;2.40;;;;;;;;;;5111159;28;20038;-63
2023/07/31 10:13:35;;;;;;;5.57;3.13;;;;;;;;;;5110103;28;20035;-63
2023/07/31 10:16:01;;;;;;;4.43;3.10;;;;;;;;;;5112269;28;20031;-64
2023/07/31 10:18:28;;;;;;;5.15;2.70;;;;;;;;;;5111431;28;20089;-63
2023/07/31 10:20:54;;;;;;;5.50;3.22;;;;;;;;;;5102139;28;20032;-62
2023/07/31 10:23:21;;;;;;;6.07;2.97;;;;;;;;;;5094709;28;20024;-62
2023/07/31 10:25:47;;;;;;;5.13;2.83;;;;;;;;;;5095549;28;20051;-63
2023/07/31 10:28:13;;;;;;;6.45;3.38;;;;;;;;;;5110151;28;20039;-64
2023/07/31 10:30:39;;;;;;;4.75;2.50;;;;;;;;;;5107580;28;20059;-63
2023/07/31 10:33:05;;;;;;;5.88;2.80;;;;;;;;;;5113888;28;20092;-64
2023/07/31 10:35:31;;;;;;;4.20;2.55;;;;;;;;;;5100525;28;20477;-64
2023/07/31 10:38:10;;;;;;;5.40;2.67;;;;;;;;;;5094985;28;20047;-65
2023/07/31 10:40:36;;;;;;;4.50;2.72;;;;;;;;;;5095539;28;20685;-62
2023/07/31 10:43:04;;;;;;;4.20;2.60;;;;;;;;;;5101819;28;20020;-64
2023/07/31 10:45:38;;;;;;;4.95;2.70;;;;;;;;;;5113372;28;20118;-63
2023/07/31 10:48:15;;;;;;;5.93;2.80;;;;;;;;;;5096811;28;20028;-64
2023/07/31 10:50:56;;;;;;;7.65;3.67;;;;;;;;;;5094460;28;20357;-63
2023/07/31 10:53:32;;;;;;;6.03;3.83;;;;;;;;;;5094053;28;20552;-63
2023/07/31 10:56:05;;;;;;;7.45;4.18;;;;;;;;;;5099034;28;20027;-62
2023/07/31 10:58:32;;;;;;;7.63;4.88;;;;;;;;;;5113911;28;20365;-62
2023/07/31 11:01:03;;;;;;;9.02;4.88;;;;;;;;;;5107504;28;20406;-62
2023/07/31 11:03:54;;;;;;;8.00;5.35;;;;;;;;;;5114008;28;20050;-62
2023/07/31 11:06:19;;;;;;;8.85;5.30;;;;;;;;;;5100072;28;20038;-64
2023/07/31 11:08:47;;;;;;;9.85;5.85;;;;;;;;;;5113892;28;20387;-62
2023/07/31 11:11:15;;;;;;;11.27;6.20;;;;;;;;;;5113907;28;20031;-63
2023/07/31 11:13:54;;;;;;;11.32;6.68;;;;;;;;;;5114069;28;20110;-63
2023/07/31 11:16:24;;;;;;;8.48;6.22;;;;;;;;;;5113327;28;20080;-64
2023/07/31 11:18:52;;;;;;;11.18;7.03;;;;;;;;;;5114227;28;20035;-64
2023/07/31 11:21:25;;;;;;;12.82;7.75;;;;;;;;;;5095806;28;20028;-65
2023/07/31 11:23:53;;;;;;;11.23;6.97;;;;;;;;;;5092928;28;20508;-64
2023/07/31 11:26:19;;;;;;;12.27;7.20;;;;;;;;;;5093206;28;20097;-64
2023/07/31 11:28:48;;;;;;;11.88;5.93;;;;;;;;;;5107459;28;20019;-63
2023/07/31 11:31:14;;;;;;;12.57;6.90;;;;;;;;;;5113746;28;20039;-63
2023/07/31 11:33:39;;;;;;;11.68;6.88;;;;;;;;;;5113448;28;20486;-63
2023/07/31 11:36:05;;;;;;;12.40;6.90;;;;;;;;;;5113978;28;20505;-63
2023/07/31 11:38:32;;;;;;;10.40;6.93;;;;;;;;;;5113134;28;20036;-63
2023/07/31 11:40:59;;;;;;;11.82;6.03;;;;;;;;;;5100297;28;20426;-63
2023/07/31 11:43:26;;;;;;;10.35;6.13;;;;;;;;;;5092529;28;20034;-62
2023/07/31 11:45:54;;;;;;;11.35;5.88;;;;;;;;;;5093935;28;20357;-62
2023/07/31 11:48:26;;;;;;;8.35;5.43;;;;;;;;;;5109257;28;20046;-63
2023/07/31 11:50:52;;;;;;;11.70;6.75;;;;;;;;;;5102862;28;20039;-65
2023/07/31 11:53:23;;;;;;;10.55;6.30;;;;;;;;;;5108208;28;20115;-65
2023/07/31 11:55:48;;;;;;;10.35;5.70;;;;;;;;;;5102354;28;20574;-62
2023/07/31 11:58:16;;;;;;;11.07;5.88;;;;;;;;;;5093540;28;20044;-64
2023/07/31 12:00:41;;;;;;;10.90;5.72;;;;;;;;;;5095860;28;20028;-63
2023/07/31 12:03:07;;;;;;;11.25;5.95;;;;;;;;;;5112483;28;20073;-64
2023/07/31 12:05:32;;;;;;;9.05;4.93;;;;;;;;;;5112526;28;20095;-60
2023/07/31 12:07:58;;;;;;;9.77;4.88;;;;;;;;;;5112351;28;20407;-65
2023/07/31 12:10:32;;;;;;;8.48;4.60;;;;;;;;;;5105080;28;20028;-67
2023/07/31 12:13:10;;;;;;;9.43;5.40;;;;;;;;;;5110617;28;20035;-60
2023/07/31 12:15:39;;;;;;;8.32;4.47;;;;;;;;;;5111486;28;20668;-60
2023/07/31 12:18:13;;;;;;;9.25;5.65;;;;;;;;;;5111971;28;20039;-63
2023/07/31 12:20:47;;;;;;;8.95;5.05;;;;;;;;;;5108453;28;20023;-65
2023/07/31 12:23:28;;;;;;;7.57;4.60;;;;;;;;;;5091448;28;20039;-63
2023/07/31 12:26:24;;;;;;;7.70;5.15;;;;;;;;;;5104827;28;20464;-61
2023/07/31 12:28:50;;;;;;;7.43;4.97;;;;;;;;;;5095542;28;20039;-63
2023/07/31 12:31:21;;;;;;;8.70;5.60;;;;;;;;;;5106254;28;20040;-65
2023/07/31 12:33:47;;;;;;;;;;;;;;;;;;5112983;28;20084;-62
2023/07/31 12:36:20;;;;;;;9.95;5.75;;;;;;;;;;5112071;28;19916;-62
2023/07/31 12:38:46;;;;;;;11.50;6.22;;;;;;;;;;5115135;28;20475;-64
2023/07/31 12:41:12;;;;;;;11.82;6.28;;;;;;;;;;5101254;27;20094;-62
2023/07/31 12:43:40;;;;;;;9.55;6.63;;;;;;;;;;5091138;28;20043;-63
2023/07/31 12:46:09;;;;;;;10.95;6.90;;;;;;;;;;5109925;28;20028;-63
2023/07/31 12:48:36;;;;;;;10.10;6.57;;;;;;;;;;5109846;28;20038;-63
2023/07/31 12:51:02;;;;;;;10.10;6.50;;;;;;;;;;5102501;28;20039;-62
2023/07/31 12:53:28;;;;;;;10.45;6.95;;;;;;;;;;5092481;28;20028;-66
2023/07/31 12:55:56;;;;;;;11.20;5.70;;;;;;;;;;5109002;28;20080;-65
2023/07/31 12:58:21;;;;;;;8.60;5.70;;;;;;;;;;5111942;28;20032;-64
2023/07/31 13:00:46;;;;;;;8.35;5.28;;;;;;;;;;5112279;28;20057;-63
2023/07/31 13:03:12;;;;;;;10.20;6.28;;;;;;;;;;5110406;28;20080;-64
2023/07/31 13:05:37;;;;;;;7.82;5.65;;;;;;;;;;5109152;28;20479;-60
2023/07/31 13:08:03;;;;;;;9.13;6.10;;;;;;;;;;5111067;28;20124;-62
2023/07/31 13:10:29;;;;;;;11.30;6.40;;;;;;;;;;5107026;28;20035;-62
2023/07/31 13:12:55;;;;;;;7.72;4.80;;;;;;;;;;5092215;28;20024;-62
2023/07/31 13:15:20;;;;;;;6.65;4.18;;;;;;;;;;5091486;28;20027;-62
2023/07/31 13:17:48;;;;;;;7.35;4.10;;;;;;;;;;5092133;28;20469;-65
2023/07/31 13:20:14;;;;;;;7.03;4.35;;;;;;;;;;5107466;28;20104;-63
2023/07/31 13:22:39;;;;;;;8.23;4.20;;;;;;;;;;5110086;28;20073;-62
2023/07/31 13:25:06;;;;;;;9.07;4.47;;;;;;;;;;5111985;28;20042;-62
2023/07/31 13:27:31;;;;;;;6.40;3.78;;;;;;;;;;5111336;28;20161;-61
2023/07/31 13:29:56;;;;;;;6.47;4.10;;;;;;;;;;5112133;28;20118;-60
2023/07/31 13:32:22;;;;;;;8.75;4.45;;;;;;;;;;5091631;28;20166;-61
2023/07/31 13:34:48;;;;;;;5.47;3.65;;;;;;;;;;5091757;28;20499;-60
2023/07/31 13:37:14;;;;;;;6.25;3.58;;;;;;;;;;5109367;28;20063;-61
2023/07/31 13:39:40;;;;;;;6.43;3.90;;;;;;;;;;5109978;28;20063;-60
2023/07/31 13:42:08;;;;;;;6.15;3.50;;;;;;;;;;5110332;28;20035;-63
2023/07/31 13:44:34;;;;;;;4.65;2.92;;;;;;;;;;5110800;28;20023;-63
2023/07/31 13:47:00;;;;;;;8.70;4.97;;;;;;;;;;5111630;28;20027;-72
2023/07/31 13:49:26;;;;;;;7.95;4.38;;;;;;;;;;5111002;28;20035;-60
2023/07/31 13:51:51;;;;;;;7.88;4.30;;;;;;;;;;5111762;28;20105;-61
2023/07/31 13:54:17;;;;;;;7.97;3.75;;;;;;;;;;5112201;28;20111;-63
2023/07/31 13:56:43;;;;;;;5.93;3.67;;;;;;;;;;5109125;28;20035;-61
2023/07/31 13:59:08;;;;;;;6.40;3.67;;;;;;;;;;5112748;28;20053;-63
2023/07/31 14:01:33;;;;;;;5.28;3.13;;;;;;;;;;5108587;28;20036;-64
2023/07/31 14:03:59;;;;;;;7.28;3.47;;;;;;;;;;5114586;28;20026;-63
2023/07/31 14:06:25;;;;;;;6.38;3.65;;;;;;;;;;5109345;28;20388;-63
2023/07/31 14:08:50;;;;;;;5.78;3.28;;;;;;;;;;5115282;28;20155;-66
2023/07/31 14:11:16;;;;;;;7.20;3.33;;;;;;;;;;5114826;28;20472;-64
2023/07/31 14:13:41;;;;;;;5.13;3.28;;;;;;;;;;5114716;28;20027;-64
2023/07/31 14:16:06;;;;;;;4.82;3.20;;;;;;;;;;5109132;28;20181;-65
2023/07/31 14:18:32;;;;;;;6.82;3.40;;;;;;;;;;5094319;28;20028;-65
2023/07/31 14:20:57;;;;;;;6.78;3.78;;;;;;;;;;5101176;28;20032;-67
2023/07/31 14:23:23;;;;;;;5.72;3.78;;;;;;;;;;5094311;28;20024;-65
2023/07/31 14:25:48;;;;;;;5.75;3.20;;;;;;;;;;5108401;28;20333;-65
2023/07/31 14:28:13;;;;;;;6.70;3.80;;;;;;;;;;5105637;28;20028;-64
2023/07/31 14:30:39;;;;;;;5.97;3.60;;;;;;;;;;5114458;28;20055;-65
2023/07/31 14:33:04;;;;;;;6.38;3.28;;;;;;;;;;5114211;28;20487;-64